Continental CupRacingTough Field, Tough Course at Mt. Itasca SuperTour

FasterSkier FasterSkierJanuary 21, 2006

University of Fairbanks racer Johanna Turunen hammered the steep climbs and fast flats at Mt Itasca, Minnesota faster than anyone else in today's SuperTour 10km Freestyle race. Conditions for the individual start race were hard and fast on the rolling flats at the bottom and top sections of the course, but no one was breaking any land-speed records on the section in between: a series of super-steep climbs twisting around through the woods leading from the base-lodge elevation to the top of the chairlift of the nearby downhill area. The steep S-turn sections on the way down from the high point of the course gave high-speed thrills to spectators and racers alike.



Kate Whitcomb, 250m from securing 2nd place



Erin Hood powers over a short hill in the last 1.5km


Some very strong, big-name skiers finished outside the top 10, a testament to the great depth of field in the event. In addition to the usual sponsored professional skiers, many college and club teams were in attendance, raising the level of competition significantly.

Results – SuperTour Women's 10km Freestyle

Results by White River Sports timing (www.itiming.com)

1 218 Turunen, Johanna UAF Coll-SR 3185105 (X5880364 CC6142SR 00:27:01.7
2 199 Whitcomb, Kate FSx/MWSC NorAm 1251494 E5241328 00:27:23.4
3 229 Benson, Jacqui Caledonia Nordics NorAm 1340928 00:27:39.6
4 186 Kochen, Tami NMU Coll-SR 3535003 R5479225 CG6305SR 00:27:41.1
5 201 Hood, Erin APUNSC NorAm 3535012 A5221577 00:27:43.5
6 212 Havlova, Pavla UAF Coll-SR 3155084 CC6139SR 00:27:44.0
7 185 Naryshkina, Natasha Rossignol/RSSS NorAm x6072276 00:27:46.0
8 198 Mcloon, Anna Atomic/Go!Training NorAm 3535233 5624101 00:28:00.3
9 195 Compton, Caitlin Subaru Factory Team NorAm 00:28:07.1
10 220 Swanson, Shayla x-c.com NorAm 1341898 00:28:44.2
11 197 Winters, Johanna UW-GB Coll-SR CM6248 C5731930 CM6248SR 00:28:50.8
12 219 Hueberli, Muriele Team Rossignol NorAm 1312507 00:28:58.4
13 203 Owen, Kristina MTU Coll-SR 3535100 C5624168 CG6388SR 00:29:02.9
14 194 Stuber, Maria NMU -unattached NorAm 3535184 C5729777 00:29:07.2
15 181 Mygatt, Jennifer Bridger Ski NorAm 6024087 00:29:08.7
16 228 Dale, Linn STOLAF Coll-SR CM6202SR 00:29:31.8
17 191 Dewitt, Laura NMU Coll-OJ 3535187 E5838677 CC6300OJ 00:29:35.4
18 192 Coogan, Corey Alpina Racing NorAm 3535039 4682902 00:29:58.0
19 200 Wygant, Jennifer NMU Coll-SR 3535183 C5793039 CG6315SR 00:29:59.0
20 202 Daw, Chandra GAC Coll-SR C5947858 CM6455SR 00:29:59.5
21 233 Klein, Jenna Ely Nordic Club OJ C5964408 MW6220OJ 00:30:26.3
22 234 Fjeldheim, Ingrid Duluth East High OJ C5864434 MW6223OJ 00:30:26.4
23 190 Weber, Audrey STOLAF Coll-OJ CM6204OJ 00:30:38.9
24 187 Olson, Ingrid NorAm C5964408 00:30:41.2
25 196 Edlund, Laura GAC Coll-OJ C5797600 CM6458OJ 00:30:52.3
26 193 Ahern, Kelly NMU Coll-SR R5872387 CG6294SR 00:30:58.2
27 243 Stadem, Hanna Brainerd OJ MW6005JO 00:30:59.4
28 207 Hittner, Heidi UW-GB Coll-SR CM6243 C5624978 CM6243SR 00:31:08.8
29 167 Warneke, Julie SCSU Coll-SR – C5901525 CM6213SR 00:31:23.5
30 180 Olson, Nicole GAC Coll-SR C5888623 CM6461SR 00:31:24.0
31 184 Chaudoin, Kelly GAC Coll-OJ C6002539 CM6454OJ 00:31:33.1
32 241 Monahan, Kristen Eden Prairie OJ MW6448OJ 00:31:38.7
33 246 Ellis, Kate Citizen 00:31:43.4
34 188 Quinley, Elizabeth MTU Coll-OJ 3535236 5842208 CG6390OJ 00:31:46.5
35 206 Short, Shaina STOLAF Coll-OJ CM6203OJ 00:31:52.8
36 235 Anderson, Ellen Ely OJ C6022677 MW6271OJ 00:31:53.3
37 183 Pletcher, Ashley UW-GB Coll-SR CM6245 C5843073 CM6245OJ 00:31:54.5
38 225 Mahy, Bibiane NMU Coll-OJ canadian CC6307OJ 00:31:55.3
39 177 Wubbels, Kelly CSB Coll-SR CM6352SR 00:32:08.0
40 240 Narveson, Jenny Hayward High School OJ MW6049OJ 00:32:10.6
41 204 Dewahl, Kathleen GAC Coll-OJ C5798178 CM6457OJ 00:32:14.3
42 205 Taipale, Ritva GAC Coll-SR CM6464SR 00:32:15.9
43 237 Bassett, Heather Lakeland OJ C6045009 MW6170OJ 00:32:18.8
44 208 Fisher, Christina UW-GB Coll-SR CM6240 C5854716 CM6240SR 00:32:28.0
45 216 Hedberg, Jennie STOLAF Coll-SR CM6201SR 00:32:35.6
46 217 Donahue, Maggie CSB Coll-OJ CM6341OJ 00:32:44.1
47 213 Ladig, Kathryn GAC Coll-OJ CM6167OJ 00:32:56.4
48 236 Holmes, Megan Mesabi East OJ 5926076 MW6076OJ 00:33:05.0
49 174 Willis, Sarah GAC Coll-OJ C5437090 CM6465OJ 00:33:17.8
50 170 Devries, Kirsten GAC Coll-SR C6059463 CM6456SR 00:33:22.5
51 227 Metz, Andrea MTU Coll-SR CG6384SR 00:33:27.6
52 222 Kangas, Laura MTU Coll-OJ CG6381OJ 00:33:29.9
53 168 Carroll, Abigail SCSU Coll-OJ – 5995261 CM6210OJ 00:33:50.5
54 171 Zupan, Katherine CSB Coll-OJ CM6353OJ 00:34:19.1
55 245 Manske, Karen Bemidji Area Ski Club Master MW6163M 00:34:31.9
56 239 Coleman, Marisa Red Shirt OJ 6079032 CM601450 00:34:38.5
57 166 Barrows, Gwynn SCSU Coll-OJ – 5916929 CM6209OJ 00:34:58.9
58 175 Mueller, Rebecca CSB Coll-SR CM6346OJ 00:35:09.5
59 226 Thompson, Stephanie STOLAF Coll-OJ CM6206OJ 00:35:20.3
60 242 Kuzzy, Laura Independent OJ MW6158OJ 00:35:20.7
61 238 Clark, Katie Nordicwerks OJ mw6407OJ 00:35:38.3
62 215 Aubrecht, Kate CSB Coll-SR CM6339SR 00:36:04.3
63 176 Wright, Makenzie CSB Coll-OJ CM6351OJ 00:36:29.7
64 169 Peterson, Tessa CSB Coll-SR CM6347SR 00:37:20.8
65 224 Argabright, Jessica CSB Coll-SR CM6338SR 00:38:01.3
66 248 Ramstad, Dagny Minneapolis SW Citizen 00:38:13.9
67 210 Leiner, Roselie CSB Coll-SR CM6344OJ 00:40:07.1
68 165 Brooks, Marsha Rose CSB Coll-OJ CM6340OJ 00:40:51.8
69 247 Skager, Kristen SW High School Citizen 00:45:16.1
70 230 Buttler, Heidi FIN Coll-OJ CG6186OJ 00:50:39.4
71 173 Toivonen, Sini FIN Coll-SR CG6740SR 00:51:13.8



Anna Mcloon, staying strong on the huge climb to the top of the mountain



View of the stadium, heading into the finish

albuterol

.

buy naltrexone online buy chantix online

FasterSkier

FasterSkier

Loading Facebook Comments ...